Time;durP1;ratioP1;P1;durP2;ratioP2;P2;SDS_P1;SDS_P2;PMS_P1;PMS_P2;Temp;Humidity;BMP_temperature;BMP_pressure;BME280_temperature;BME280_humidity;BME280_pressure;Samples;Min_cycle;Max_cycle;Signal;HPM_P1;HPM_P2
2023/05/02 00:00:12;;;;;;;19.00;9.30;;;7.60;99.90;;;;;;4421358;28;656197;-67
2023/05/02 00:03:02;;;;;;;14.40;7.93;;;7.60;99.90;;;;;;4442333;28;656480;-69
2023/05/02 00:05:49;;;;;;;19.10;9.47;;;7.60;99.90;;;;;;4440728;28;657160;-67
2023/05/02 00:08:36;;;;;;;18.10;8.63;;;7.60;99.90;;;;;;4420241;28;656294;-67
2023/05/02 00:11:23;;;;;;;19.73;8.43;;;7.50;99.90;;;;;;4436242;28;657096;-68
2023/05/02 00:14:11;;;;;;;20.10;8.30;;;7.50;99.90;;;;;;4420911;28;656830;-67
2023/05/02 00:16:58;;;;;;;16.03;7.40;;;7.50;99.90;;;;;;4444928;28;657484;-67
2023/05/02 00:19:47;;;;;;;13.00;6.37;;;7.50;99.90;;;;;;4426663;28;656690;-68
2023/05/02 00:22:34;;;;;;;14.77;7.07;;;7.50;99.90;;;;;;4443049;28;656506;-67
2023/05/02 00:25:21;;;;;;;12.50;7.00;;;7.50;99.90;;;;;;4421092;28;656870;-67
2023/05/02 00:28:08;;;;;;;13.70;6.83;;;7.50;99.90;;;;;;4443254;28;657168;-67
2023/05/02 00:30:56;;;;;;;13.73;7.10;;;7.50;99.90;;;;;;4416991;28;656095;-68
2023/05/02 00:33:43;;;;;;;13.73;7.13;;;7.50;99.90;;;;;;4444103;28;656974;-67
2023/05/02 00:36:32;;;;;;;19.73;6.27;;;7.50;99.90;;;;;;4422808;28;656770;-67
2023/05/02 00:39:19;;;;;;;15.38;6.38;;;7.50;99.90;;;;;;4442508;28;658047;-67
2023/05/02 00:42:06;;;;;;;13.90;6.33;;;7.50;99.90;;;;;;4418386;28;656525;-67
2023/05/02 00:44:53;;;;;;;15.70;6.50;;;7.50;99.90;;;;;;4437262;28;657560;-67
2023/05/02 00:47:41;;;;;;;13.80;6.33;;;7.50;99.90;;;;;;4405189;28;656876;-68
2023/05/02 00:50:28;;;;;;;11.27;6.30;;;7.40;99.90;;;;;;4436417;28;657785;-67
2023/05/02 00:53:17;;;;;;;15.67;6.20;;;7.40;99.90;;;;;;4417717;28;656340;-67
2023/05/02 00:56:04;;;;;;;14.07;6.37;;;7.50;99.90;;;;;;4438030;28;656147;-67
2023/05/02 00:58:51;;;;;;;14.90;6.57;;;7.50;99.90;;;;;;4417656;28;656795;-68
2023/05/02 01:01:43;;;;;;;15.20;6.37;;;7.50;99.90;;;;;;4441050;28;656853;-68
2023/05/02 01:04:34;;;;;;;11.43;6.18;;;7.50;99.90;;;;;;4401597;28;656808;-68
2023/05/02 01:07:35;;;;;;;10.70;6.43;;;7.40;99.90;;;;;;4415412;28;657680;-67
2023/05/02 01:10:30;;;;;;;13.40;7.10;;;7.50;99.90;;;;;;4419511;28;656342;-67
2023/05/02 01:13:20;;;;;;;10.63;6.33;;;7.40;99.90;;;;;;4417201;28;656870;-67
2023/05/02 01:16:07;;;;;;;12.77;6.80;;;7.40;99.90;;;;;;4418517;28;657465;-68
2023/05/02 01:18:54;;;;;;;15.23;7.20;;;7.40;99.90;;;;;;4441006;28;656872;-68
2023/05/02 01:21:41;;;;;;;15.57;7.70;;;7.50;99.90;;;;;;4420976;28;656850;-67
2023/05/02 01:24:30;;;;;;;22.03;8.53;;;7.40;99.90;;;;;;4433961;28;657176;-67
2023/05/02 01:27:24;;;;;;;17.13;8.13;;;7.40;99.90;;;;;;4421298;28;657017;-68
2023/05/02 01:30:13;;;;;;;20.13;8.57;;;7.30;99.90;;;;;;4389438;28;657361;-68
2023/05/02 01:33:01;;;;;;;15.45;8.25;;;7.30;99.90;;;;;;4416124;28;656643;-69
2023/05/02 01:35:49;;;;;;;18.00;8.63;;;7.40;99.90;;;;;;4444742;28;656713;-68
2023/05/02 01:38:36;;;;;;;15.40;8.70;;;7.40;99.90;;;;;;4413326;28;657458;-67
2023/05/02 01:41:25;;;;;;;14.97;7.77;;;7.40;99.90;;;;;;4442551;28;656819;-67
2023/05/02 01:44:12;;;;;;;14.67;8.07;;;7.40;99.90;;;;;;4416787;28;657983;-68
2023/05/02 01:47:01;;;;;;;16.77;7.93;;;7.30;99.90;;;;;;4437364;28;656726;-67
2023/05/02 01:49:48;;;;;;;14.10;7.50;;;7.20;99.90;;;;;;4405701;28;657266;-67
2023/05/02 01:52:36;;;;;;;12.23;6.10;;;7.20;99.90;;;;;;4421068;28;656829;-69
2023/05/02 01:55:23;;;;;;;13.50;6.70;;;7.20;99.90;;;;;;4438481;28;656963;-67
2023/05/02 01:58:10;;;;;;;13.60;7.27;;;7.20;99.90;;;;;;4420203;28;656454;-69
2023/05/02 02:00:58;;;;;;;15.67;6.87;;;7.10;99.90;;;;;;4436623;28;658216;-67
2023/05/02 02:03:47;;;;;;;19.13;6.53;;;7.10;99.90;;;;;;4430009;28;656582;-68
2023/05/02 02:06:34;;;;;;;12.93;6.20;;;7.10;99.90;;;;;;4438596;28;656583;-68
2023/05/02 02:09:21;;;;;;;11.90;6.10;;;7.10;99.90;;;;;;4413920;28;657367;-67
2023/05/02 02:12:11;;;;;;;12.80;6.43;;;7.00;99.90;;;;;;4439612;28;657414;-68
2023/05/02 02:15:00;;;;;;;12.53;6.70;;;7.00;99.90;;;;;;4353381;28;657350;-69
2023/05/02 02:17:49;;;;;;;17.77;10.43;;;7.00;99.90;;;;;;4282319;28;657406;-69
2023/05/02 02:20:38;;;;;;;24.53;11.77;;;7.00;99.90;;;;;;4277307;28;658026;-69
2023/05/02 02:23:26;;;;;;;16.65;9.15;;;6.90;99.90;;;;;;4340388;28;658058;-69
2023/05/02 02:26:13;;;;;;;18.60;9.87;;;7.00;99.90;;;;;;4429449;28;658279;-69
2023/05/02 02:29:01;;;;;;;18.27;10.20;;;6.90;99.90;;;;;;4413905;28;656556;-67
2023/05/02 02:31:49;;;;;;;14.43;8.10;;;6.90;99.90;;;;;;4439199;28;658667;-67
2023/05/02 02:34:36;;;;;;;16.10;9.20;;;6.90;99.90;;;;;;4423526;28;657548;-67
2023/05/02 02:37:28;;;;;;;18.65;8.43;;;6.80;99.90;;;;;;4438301;28;658046;-67
2023/05/02 02:40:19;;;;;;;16.77;8.10;;;6.80;99.90;;;;;;4399495;28;656868;-68
2023/05/02 02:43:12;;;;;;;17.50;8.30;;;6.80;99.90;;;;;;4413056;28;656933;-67
2023/05/02 02:46:09;;;;;;;15.40;8.00;;;6.80;99.90;;;;;;4414839;28;657013;-68
2023/05/02 02:49:11;;;;;;;21.00;7.80;;;6.80;99.90;;;;;;4385962;28;657186;-69
2023/05/02 02:52:04;;;;;;;12.50;7.37;;;6.80;99.90;;;;;;4413475;28;658057;-67
2023/05/02 02:54:59;;;;;;;15.48;7.60;;;6.80;99.90;;;;;;4419988;28;656112;-67
2023/05/02 02:57:53;;;;;;;15.33;6.63;;;6.80;99.90;;;;;;4423566;28;657946;-68
2023/05/02 03:00:43;;;;;;;15.97;7.07;;;6.70;99.90;;;;;;4426142;28;657587;-69
2023/05/02 03:03:34;;;;;;;10.80;5.73;;;6.80;99.90;;;;;;4413983;28;656909;-68
2023/05/02 03:06:24;;;;;;;12.93;5.83;;;6.70;99.90;;;;;;4414387;28;656338;-67
2023/05/02 03:09:18;;;;;;;16.97;6.40;;;6.80;99.90;;;;;;4413349;28;656854;-67
2023/05/02 03:12:07;;;;;;;11.93;5.97;;;6.80;99.90;;;;;;4388108;28;656685;-68
2023/05/02 03:14:55;;;;;;;12.87;6.07;;;6.90;99.90;;;;;;4435465;28;657280;-68
2023/05/02 03:17:42;;;;;;;12.77;5.80;;;6.80;99.90;;;;;;4406413;28;657040;-68
2023/05/02 03:20:29;;;;;;;10.90;5.43;;;6.80;99.90;;;;;;4430358;28;656412;-69
2023/05/02 03:23:16;;;;;;;14.03;6.00;;;6.80;99.90;;;;;;4416321;28;656977;-68
2023/05/02 03:26:03;;;;;;;25.40;5.90;;;6.70;99.90;;;;;;4436966;28;658055;-69
2023/05/02 03:28:52;;;;;;;18.30;10.17;;;6.70;99.90;;;;;;4414982;28;656715;-68
2023/05/02 03:31:39;;;;;;;20.23;8.73;;;6.70;99.90;;;;;;4435487;28;658743;-67
2023/05/02 03:34:26;;;;;;;15.90;7.87;;;6.80;99.90;;;;;;4419265;28;656544;-67
2023/05/02 03:37:13;;;;;;;16.97;7.17;;;6.80;99.90;;;;;;4434378;28;656608;-68
2023/05/02 03:40:01;;;;;;;13.43;6.77;;;6.90;99.90;;;;;;4415417;28;656857;-69
2023/05/02 03:42:51;;;;;;;18.20;8.63;;;7.00;99.90;;;;;;4438037;28;657242;-67
2023/05/02 03:45:44;;;;;;;21.73;7.80;;;7.10;99.90;;;;;;4409041;28;657509;-69
2023/05/02 03:48:34;;;;;;;11.98;6.32;;;7.10;99.90;;;;;;4397433;28;656741;-67
2023/05/02 03:51:25;;;;;;;14.77;6.03;;;7.20;99.90;;;;;;4416648;28;656252;-69
2023/05/02 03:54:15;;;;;;;12.60;5.80;;;7.30;99.90;;;;;;4414858;28;656950;-68
2023/05/02 03:57:05;;;;;;;8.90;4.33;;;7.30;99.90;;;;;;4417925;28;657108;-67
2023/05/02 03:59:55;;;;;;;10.80;4.53;;;7.40;99.90;;;;;;4418268;28;656166;-68
2023/05/02 04:02:47;;;;;;;15.87;5.07;;;7.50;99.90;;;;;;4419453;28;657659;-68
2023/05/02 04:05:38;;;;;;;12.30;5.37;;;7.50;99.90;;;;;;4420315;28;656096;-68
2023/05/02 04:08:28;;;;;;;9.45;4.85;;;7.60;99.90;;;;;;4414386;28;656150;-68
2023/05/02 04:11:19;;;;;;;9.87;5.00;;;7.70;99.90;;;;;;4418789;28;656329;-68
2023/05/02 04:14:08;;;;;;;9.07;5.40;;;7.80;99.90;;;;;;4412581;28;655836;-68
2023/05/02 04:16:58;;;;;;;9.63;5.23;;;7.90;99.90;;;;;;4419969;28;655856;-68
2023/05/02 04:19:50;;;;;;;10.75;5.10;;;8.00;99.90;;;;;;4416749;28;657061;-69
2023/05/02 04:22:41;;;;;;;10.30;5.30;;;8.10;99.90;;;;;;4417465;28;657407;-68
2023/05/02 04:25:31;;;;;;;8.77;4.60;;;8.30;99.90;;;;;;4406654;28;659058;-67
2023/05/02 04:28:21;;;;;;;8.03;4.40;;;8.40;99.90;;;;;;4411706;28;656688;-69
2023/05/02 04:31:12;;;;;;;8.97;4.50;;;8.60;99.90;;;;;;4413917;28;655803;-68
2023/05/02 04:34:03;;;;;;;9.80;5.17;;;8.70;99.90;;;;;;4413227;28;655556;-67
2023/05/02 04:36:55;;;;;;;7.23;4.23;;;8.80;99.90;;;;;;4399360;28;656110;-69
2023/05/02 04:39:45;;;;;;;7.50;4.07;;;9.00;99.90;;;;;;4416235;28;657226;-67
2023/05/02 04:42:36;;;;;;;7.50;4.00;;;9.20;99.90;;;;;;4405163;28;656213;-70
2023/05/02 04:45:27;;;;;;;10.83;4.20;;;9.40;99.90;;;;;;4409680;28;656800;-67
2023/05/02 04:48:17;;;;;;;6.97;3.70;;;9.60;99.90;;;;;;4414995;28;657373;-68
2023/05/02 04:51:04;;;;;;;9.65;3.92;;;9.80;99.90;;;;;;4412757;28;655692;-68
2023/05/02 04:53:53;;;;;;;7.17;3.50;;;10.00;99.90;;;;;;4413968;28;656422;-68
2023/05/02 04:56:41;;;;;;;6.13;3.40;;;10.20;99.90;;;;;;4415229;28;656488;-68
2023/05/02 04:59:28;;;;;;;5.60;3.00;;;10.40;99.90;;;;;;4437620;28;656864;-68
2023/05/02 05:02:15;;;;;;;8.30;3.22;;;10.70;99.90;;;;;;4413503;28;656856;-69
2023/05/02 05:05:03;;;;;;;6.43;3.07;;;10.90;99.90;;;;;;4435230;28;656925;-68
2023/05/02 05:07:51;;;;;;;4.30;2.67;;;11.20;99.90;;;;;;4418506;28;657248;-68
2023/05/02 05:10:40;;;;;;;6.07;2.77;;;11.40;99.90;;;;;;4433528;28;657293;-68
2023/05/02 05:13:28;;;;;;;6.13;2.50;;;11.70;99.90;;;;;;4410301;28;657618;-67
2023/05/02 05:16:15;;;;;;;6.13;2.77;;;12.00;99.90;;;;;;4420914;28;657430;-69
2023/05/02 05:19:02;;;;;;;6.13;2.90;;;12.30;99.90;;;;;;4437584;28;655858;-68
2023/05/02 05:21:50;;;;;;;6.37;2.60;;;12.50;99.90;;;;;;4432214;28;656653;-69
2023/05/02 05:24:38;;;;;;;7.10;3.00;;;12.70;99.90;;;;;;4413726;28;656711;-67
2023/05/02 05:27:27;;;;;;;6.00;3.27;;;12.90;99.90;;;;;;4426726;28;657052;-69
2023/05/02 05:30:14;;;;;;;6.87;3.30;;;13.10;95.50;;;;;;4436660;28;657438;-67
2023/05/02 05:33:01;;;;;;;9.13;3.57;;;13.30;93.50;;;;;;4409604;28;656010;-68
2023/05/02 05:35:49;;;;;;;6.83;3.60;;;13.50;94.80;;;;;;4429293;28;657141;-68
2023/05/02 05:38:36;;;;;;;6.90;3.40;;;13.60;92.50;;;;;;4413028;28;656901;-68
2023/05/02 05:41:24;;;;;;;5.03;2.40;;;13.80;92.70;;;;;;4436534;28;657108;-69
2023/05/02 05:44:13;;;;;;;5.67;2.63;;;14.00;91.20;;;;;;4413759;28;657201;-68
2023/05/02 05:47:00;;;;;;;6.73;2.73;;;14.30;91.10;;;;;;4423289;28;656695;-68
2023/05/02 05:49:47;;;;;;;6.73;2.57;;;14.30;91.30;;;;;;4431606;28;656121;-68
2023/05/02 05:52:36;;;;;;;4.60;2.70;;;14.50;88.00;;;;;;4431950;28;656516;-69
2023/05/02 05:55:23;;;;;;;9.63;3.00;;;14.60;87.00;;;;;;4431429;28;656954;-68
2023/05/02 05:58:10;;;;;;;7.90;2.90;;;14.70;85.10;;;;;;4413958;28;656777;-68
2023/05/02 06:00:59;;;;;;;4.73;2.70;;;14.80;84.60;;;;;;4432848;28;657318;-68
2023/05/02 06:03:46;;;;;;;9.70;3.03;;;14.90;86.80;;;;;;4412487;28;657235;-68
2023/05/02 06:06:34;;;;;;;8.93;3.40;;;15.00;85.30;;;;;;4427487;28;657217;-68
2023/05/02 06:09:21;;;;;;;9.03;3.10;;;15.10;83.60;;;;;;4413945;28;656974;-68
2023/05/02 06:12:08;;;;;;;12.97;3.47;;;15.20;84.10;;;;;;4429486;28;657517;-67
2023/05/02 06:14:55;;;;;;;8.73;3.20;;;15.30;85.70;;;;;;4416299;28;657963;-70
2023/05/02 06:17:44;;;;;;;7.63;3.13;;;15.40;83.50;;;;;;4437495;28;656184;-72
2023/05/02 06:20:31;;;;;;;7.00;3.03;;;15.50;87.00;;;;;;4414256;28;657132;-71
2023/05/02 06:23:18;;;;;;;7.90;3.10;;;15.60;86.30;;;;;;4435003;28;656840;-72
2023/05/02 06:26:06;;;;;;;7.27;3.40;;;15.60;81.70;;;;;;4415915;28;656688;-69
2023/05/02 06:28:54;;;;;;;5.23;3.23;;;15.80;84.50;;;;;;4432506;28;657570;-71
2023/05/02 06:31:42;;;;;;;8.53;3.27;;;15.90;84.80;;;;;;4414304;28;656875;-70
2023/05/02 06:34:31;;;;;;;5.57;3.40;;;16.20;83.40;;;;;;4437321;28;656499;-73
2023/05/02 06:37:18;;;;;;;8.43;3.30;;;16.50;80.70;;;;;;4416945;28;656985;-73
2023/05/02 06:40:07;;;;;;;6.13;3.20;;;16.60;80.20;;;;;;4414735;28;657096;-71
2023/05/02 06:42:55;;;;;;;7.53;3.40;;;16.80;81.00;;;;;;4439611;28;656496;-72
2023/05/02 06:45:42;;;;;;;10.13;3.50;;;17.00;75.80;;;;;;4412730;28;657935;-71
2023/05/02 06:48:29;;;;;;;8.03;3.37;;;17.00;78.50;;;;;;4438091;28;657945;-72
2023/05/02 06:51:20;;;;;;;6.53;3.40;;;17.20;76.80;;;;;;4423461;28;657373;-72
2023/05/02 06:54:07;;;;;;;7.73;3.20;;;17.30;78.30;;;;;;4423677;28;657160;-72
2023/05/02 06:56:54;;;;;;;6.90;2.80;;;17.40;78.30;;;;;;4439949;28;656632;-71
2023/05/02 06:59:41;;;;;;;5.57;3.10;;;17.50;77.00;;;;;;4425406;28;656819;-71
2023/05/02 07:02:29;;;;;;;7.53;3.17;;;17.40;74.10;;;;;;4430679;28;657041;-71
2023/05/02 07:05:16;;;;;;;7.90;3.40;;;17.40;72.80;;;;;;4416489;28;656531;-70
2023/05/02 07:08:06;;;;;;;6.97;3.20;;;17.40;78.20;;;;;;4441006;28;656880;-72
2023/05/02 07:10:53;;;;;;;6.85;3.38;;;17.70;79.30;;;;;;4417801;28;656815;-71
2023/05/02 07:13:40;;;;;;;9.23;3.10;;;17.80;73.00;;;;;;4426519;28;657578;-71
2023/05/02 07:16:28;;;;;;;4.00;2.43;;;17.80;81.60;;;;;;4437681;28;657821;-71
2023/05/02 07:19:15;;;;;;;6.23;2.33;;;17.80;75.50;;;;;;4415009;28;657291;-71
2023/05/02 07:22:02;;;;;;;4.27;2.57;;;18.00;73.10;;;;;;4443319;28;656218;-71
2023/05/02 07:24:57;;;;;;;6.97;2.40;;;17.70;74.60;;;;;;4442156;28;656657;-71
2023/05/02 07:27:44;;;;;;;4.50;2.60;;;17.80;70.80;;;;;;4418000;28;657373;-70
2023/05/02 07:30:32;;;;;;;6.77;2.47;;;17.90;72.40;;;;;;4425009;28;657109;-71
2023/05/02 07:33:19;;;;;;;3.20;2.10;;;18.00;71.30;;;;;;4440189;28;657216;-70
2023/05/02 07:36:06;;;;;;;11.93;3.10;;;18.20;70.60;;;;;;4410144;28;656318;-70
2023/05/02 07:38:53;;;;;;;11.00;2.23;;;18.30;73.90;;;;;;4438738;28;658360;-72
2023/05/02 07:41:42;;;;;;;3.60;2.27;;;18.60;73.30;;;;;;4419106;28;658172;-71
2023/05/02 07:44:29;;;;;;;4.87;2.43;;;18.90;72.50;;;;;;4445888;28;655848;-72
2023/05/02 07:47:16;;;;;;;6.80;2.37;;;19.10;68.90;;;;;;4419909;28;656949;-71
2023/05/02 07:50:04;;;;;;;3.97;1.90;;;19.20;69.20;;;;;;4440454;28;657183;-72
2023/05/02 07:52:51;;;;;;;6.57;2.00;;;19.00;71.70;;;;;;4414624;28;656749;-72
2023/05/02 07:55:38;;;;;;;3.70;2.23;;;19.10;69.70;;;;;;4437232;28;658521;-70
2023/05/02 07:58:27;;;;;;;4.27;2.43;;;18.90;65.80;;;;;;4416333;28;656599;-71
2023/05/02 08:01:14;;;;;;;4.77;2.20;;;19.00;76.50;;;;;;4440228;28;656889;-72
2023/05/02 08:04:03;;;;;;;4.70;2.23;;;19.40;68.60;;;;;;4415303;28;656776;-71
2023/05/02 08:06:50;;;;;;;4.17;2.20;;;19.60;72.70;;;;;;4429044;28;656301;-71
2023/05/02 08:09:37;;;;;;;2.57;2.03;;;19.60;69.50;;;;;;4449783;28;657442;-72
2023/05/02 08:12:24;;;;;;;4.20;2.50;;;19.80;69.80;;;;;;4344115;28;656611;-70
2023/05/02 08:15:13;;;;;;;4.40;2.43;;;19.90;70.00;;;;;;4288559;28;656400;-68
2023/05/02 08:18:01;;;;;;;2.20;1.87;;;19.80;65.70;;;;;;4287492;28;656925;-70
2023/05/02 08:20:49;;;;;;;5.13;2.20;;;19.90;66.70;;;;;;4368020;28;657240;-72
2023/05/02 08:23:37;;;;;;;6.57;1.93;;;20.20;65.00;;;;;;4420407;28;656496;-71
2023/05/02 08:26:24;;;;;;;2.60;1.70;;;20.30;62.80;;;;;;4440619;28;656671;-73
2023/05/02 08:29:11;;;;;;;3.10;2.10;;;19.90;65.20;;;;;;4422383;28;656802;-72
2023/05/02 08:32:00;;;;;;;2.67;2.10;;;19.90;63.70;;;;;;4436681;28;656214;-69
2023/05/02 08:34:47;;;;;;;5.35;1.77;;;20.00;63.70;;;;;;4418168;28;657016;-70
2023/05/02 08:37:35;;;;;;;2.17;1.93;;;20.10;62.00;;;;;;4441683;28;656719;-71
2023/05/02 08:40:22;;;;;;;3.53;2.20;;;20.00;61.50;;;;;;4411814;28;657394;-70
2023/05/02 08:43:10;;;;;;;4.37;1.97;;;19.80;67.40;;;;;;4431872;28;656661;-70
2023/05/02 08:45:58;;;;;;;4.37;2.00;;;20.00;65.10;;;;;;4414717;28;657077;-72
2023/05/02 08:48:48;;;;;;;6.57;2.20;;;19.70;63.10;;;;;;4428548;28;657012;-71
2023/05/02 08:51:35;;;;;;;3.83;2.20;;;20.10;63.60;;;;;;4432073;28;656687;-70
2023/05/02 08:54:24;;;;;;;7.47;2.30;;;20.50;60.40;;;;;;4430749;28;657643;-73
2023/05/02 08:57:11;;;;;;;2.40;1.97;;;20.60;61.60;;;;;;4417168;28;657038;-71
2023/05/02 08:59:59;;;;;;;4.13;2.20;;;20.20;65.00;;;;;;4439555;28;656751;-71
2023/05/02 09:02:53;;;;;;;4.77;2.43;;;20.80;59.40;;;;;;4415910;28;657105;-70
2023/05/02 09:05:43;;;;;;;5.07;2.20;;;20.40;59.80;;;;;;4399778;28;657408;-71
2023/05/02 09:08:30;;;;;;;3.57;2.37;;;20.30;62.90;;;;;;4420015;28;656181;-71
2023/05/02 09:11:18;;;;;;;4.30;2.27;;;20.20;59.60;;;;;;4439238;28;656732;-70
2023/05/02 09:14:13;;;;;;;4.90;2.15;;;20.50;59.80;;;;;;4425431;28;656711;-69
2023/05/02 09:17:01;;;;;;;6.30;2.30;;;20.30;59.30;;;;;;4397130;28;657209;-71
2023/05/02 09:19:59;;;;;;;4.57;2.30;;;20.30;60.80;;;;;;4441981;28;657181;-70
2023/05/02 09:22:51;;;;;;;4.90;2.60;;;20.30;60.80;;;;;;4393144;28;657541;-73
2023/05/02 09:25:38;;;;;;;5.10;2.53;;;20.10;59.50;;;;;;4418984;28;658352;-72
2023/05/02 09:28:41;;;;;;;3.53;2.43;;;20.20;60.50;;;;;;4410147;28;656948;-70
2023/05/02 09:31:29;;;;;;;5.67;2.63;;;20.50;59.30;;;;;;4420492;28;657150;-73
2023/05/02 09:34:16;;;;;;;5.23;2.50;;;20.30;61.20;;;;;;4419093;28;656397;-73
2023/05/02 09:37:04;;;;;;;4.27;2.10;;;20.00;60.50;;;;;;4437400;28;656957;-72
2023/05/02 09:40:08;;;;;;;2.65;2.20;;;19.90;64.90;;;;;;4414643;28;657119;-72
2023/05/02 09:42:55;;;;;;;4.47;3.07;;;20.00;61.30;;;;;;4402910;28;657335;-70
2023/05/02 09:45:42;;;;;;;3.23;2.33;;;19.80;61.50;;;;;;4435549;28;657173;-73
2023/05/02 09:48:30;;;;;;;4.90;2.67;;;19.90;63.10;;;;;;4435789;28;657272;-73
2023/05/02 09:51:17;;;;;;;3.97;2.33;;;19.70;60.80;;;;;;4419391;28;656923;-73
2023/05/02 09:54:05;;;;;;;4.67;2.47;;;19.60;60.70;;;;;;4442104;28;656797;-72
2023/05/02 09:56:55;;;;;;;5.67;2.27;;;19.40;61.20;;;;;;4447393;28;657554;-73
2023/05/02 09:59:52;;;;;;;3.20;2.20;;;19.50;61.20;;;;;;4413762;28;656472;-73
2023/05/02 10:02:40;;;;;;;4.63;2.40;;;19.60;66.60;;;;;;4408726;28;656687;-73
2023/05/02 10:05:27;;;;;;;7.03;2.47;;;19.50;62.60;;;;;;4418771;28;656816;-73
2023/05/02 10:08:14;;;;;;;5.87;2.13;;;19.80;65.80;;;;;;4439073;28;656040;-72
2023/05/02 10:11:04;;;;;;;6.23;2.50;;;20.00;62.50;;;;;;4417062;28;656545;-71
2023/05/02 10:13:52;;;;;;;3.53;2.13;;;20.20;62.60;;;;;;4415983;28;656608;-71
2023/05/02 10:16:45;;;;;;;5.10;2.57;;;20.80;62.90;;;;;;4437829;28;657628;-71
2023/05/02 10:19:39;;;;;;;4.40;2.30;;;20.70;60.80;;;;;;4395225;28;656628;-74
2023/05/02 10:22:26;;;;;;;6.90;2.40;;;20.50;63.90;;;;;;4421366;28;657217;-73
2023/05/02 10:25:13;;;;;;;4.13;2.30;;;20.50;58.50;;;;;;4442320;28;656925;-72
2023/05/02 10:28:01;;;;;;;4.53;2.20;;;21.10;62.50;;;;;;4424298;28;656657;-73
2023/05/02 10:30:49;;;;;;;8.07;2.53;;;21.90;62.70;;;;;;4442180;28;656812;-72
2023/05/02 10:33:37;;;;;;;4.60;2.40;;;22.00;62.20;;;;;;4425387;28;657349;-72
2023/05/02 10:36:24;;;;;;;6.53;2.37;;;22.30;59.10;;;;;;4440486;28;656931;-71
2023/05/02 10:39:11;;;;;;;4.80;2.67;;;22.00;55.00;;;;;;4414374;28;656576;-69
2023/05/02 10:42:00;;;;;;;4.97;2.67;;;21.80;56.10;;;;;;4440729;28;657148;-73
2023/05/02 10:44:49;;;;;;;4.00;2.27;;;21.40;59.00;;;;;;4419895;28;657022;-71
2023/05/02 10:47:37;;;;;;;3.63;2.20;;;21.80;60.50;;;;;;4420980;28;656410;-73
2023/05/02 10:50:26;;;;;;;3.53;1.97;;;21.80;52.80;;;;;;4442580;28;659045;-71
2023/05/02 10:53:30;;;;;;;2.97;1.97;;;21.90;52.00;;;;;;4436457;28;656540;-73
2023/05/02 10:56:20;;;;;;;3.93;2.40;;;21.20;53.10;;;;;;4400464;28;656685;-74
2023/05/02 10:59:28;;;;;;;3.73;2.23;;;21.00;52.70;;;;;;4419026;28;657522;-73
2023/05/02 11:02:51;;;;;;;3.87;2.30;;;21.10;54.60;;;;;;4403755;28;656807;-72
2023/05/02 11:06:04;;;;;;;8.20;2.97;;;20.80;53.40;;;;;;4421140;28;656872;-74
2023/05/02 11:08:51;;;;;;;4.00;2.00;;;20.80;56.20;;;;;;4392798;28;656714;-74
2023/05/02 11:11:40;;;;;;;3.03;1.93;;;20.70;52.60;;;;;;4433981;28;657729;-72
2023/05/02 11:14:47;;;;;;;6.70;2.00;;;20.90;54.40;;;;;;4423438;28;657725;-72
2023/05/02 11:17:52;;;;;;;4.77;2.33;;;21.00;53.60;;;;;;4416061;28;656685;-72
2023/05/02 11:20:41;;;;;;;7.63;2.40;;;21.00;53.50;;;;;;4421778;28;656381;-73
2023/05/02 11:23:29;;;;;;;4.30;2.53;;;20.90;56.80;;;;;;4425439;28;656525;-73
2023/05/02 11:26:22;;;;;;;5.10;2.60;;;20.70;53.90;;;;;;4423201;28;656790;-72
2023/05/02 11:29:09;;;;;;;5.20;2.27;;;20.50;55.70;;;;;;4413594;28;656764;-71
2023/05/02 11:31:56;;;;;;;3.57;2.63;;;20.10;56.10;;;;;;4418967;28;656672;-71
2023/05/02 11:34:43;;;;;;;4.97;2.50;;;20.10;59.70;;;;;;4442622;28;656706;-72
2023/05/02 11:37:33;;;;;;;6.33;2.50;;;20.40;56.20;;;;;;4418153;28;657276;-73
2023/05/02 11:40:20;;;;;;;6.73;2.40;;;20.20;56.00;;;;;;4417790;28;657017;-71
2023/05/02 11:43:14;;;;;;;5.03;2.37;;;19.70;58.00;;;;;;4437959;28;657721;-70
2023/05/02 11:46:02;;;;;;;5.50;2.77;;;19.70;58.40;;;;;;4416127;28;656857;-72
2023/05/02 11:48:49;;;;;;;4.33;2.50;;;19.50;58.40;;;;;;4440849;28;658503;-72
2023/05/02 11:51:36;;;;;;;6.90;2.43;;;19.20;58.80;;;;;;4424107;28;656472;-73
2023/05/02 11:54:25;;;;;;;7.57;2.57;;;19.30;60.80;;;;;;4446113;28;656646;-71
2023/05/02 11:57:12;;;;;;;5.90;2.30;;;19.70;61.60;;;;;;4421204;28;656458;-74
2023/05/02 12:00:00;;;;;;;3.17;2.30;;;20.00;60.10;;;;;;4447263;28;656357;-72
2023/05/02 12:02:47;;;;;;;4.23;2.50;;;19.80;59.40;;;;;;4407880;28;657704;-71
2023/05/02 12:05:35;;;;;;;9.43;3.77;;;20.00;62.50;;;;;;4438929;28;656946;-73
2023/05/02 12:08:23;;;;;;;7.43;3.80;;;20.10;66.00;;;;;;4419696;28;657607;-73
2023/05/02 12:11:13;;;;;;;9.10;3.80;;;20.20;67.30;;;;;;4423144;28;656967;-73
2023/05/02 12:14:00;;;;;;;7.20;3.57;;;19.80;67.20;;;;;;4430508;28;656965;-73
2023/05/02 12:16:47;;;;;;;9.33;3.90;;;20.10;66.90;;;;;;4448545;28;657026;-76
2023/05/02 12:19:36;;;;;;;6.13;3.57;;;19.90;67.70;;;;;;4441096;28;657031;-75
2023/05/02 12:22:24;;;;;;;5.87;4.20;;;20.30;68.40;;;;;;4441745;28;657178;-72
2023/05/02 12:25:11;;;;;;;33.73;16.60;;;20.40;67.00;;;;;;4424175;28;657367;-74
2023/05/02 12:28:03;;;;;;;263.73;154.43;;;20.60;68.50;;;;;;4446803;28;659255;-74
2023/05/02 12:30:50;;;;;;;7.87;5.20;;;20.90;73.00;;;;;;4408295;28;660989;-73
2023/05/02 12:33:42;;;;;;;8.13;4.10;;;20.70;71.40;;;;;;4444156;28;657665;-76
2023/05/02 12:36:29;;;;;;;15.10;6.67;;;20.40;73.00;;;;;;4420157;28;656377;-74
2023/05/02 12:39:17;;;;;;;7.20;4.60;;;21.30;70.60;;;;;;4415640;28;658571;-75
2023/05/02 12:42:11;;;;;;;14.13;5.43;;;21.20;67.30;;;;;;4441121;28;656342;-74
2023/05/02 12:45:00;;;;;;;6.97;4.67;;;21.40;69.50;;;;;;4419684;28;657625;-75
2023/05/02 12:47:47;;;;;;;12.63;4.97;;;21.90;64.50;;;;;;4418463;28;656939;-74
2023/05/02 12:50:38;;;;;;;5.93;4.63;;;21.50;67.00;;;;;;4438655;28;657583;-76
2023/05/02 12:53:38;;;;;;;11.53;5.17;;;21.30;67.40;;;;;;4406252;28;656283;-73
2023/05/02 12:56:30;;;;;;;7.30;4.80;;;21.00;71.30;;;;;;4387190;28;657877;-74
2023/05/02 12:59:27;;;;;;;6.67;4.93;;;21.40;68.50;;;;;;4420915;28;657572;-75
2023/05/02 13:02:16;;;;;;;10.57;4.90;;;20.90;69.00;;;;;;4415885;28;656613;-74
2023/05/02 13:05:13;;;;;;;11.13;4.97;;;21.00;67.80;;;;;;4406720;28;658170;-73
2023/05/02 13:08:00;;;;;;;8.20;4.90;;;20.50;69.90;;;;;;4399983;28;657767;-73
2023/05/02 13:10:47;;;;;;;13.20;5.50;;;20.80;69.50;;;;;;4444741;28;656893;-73
2023/05/02 13:13:35;;;;;;;6.53;4.60;;;20.80;71.30;;;;;;4437978;28;657199;-80
2023/05/02 13:16:22;;;;;;;11.47;5.37;;;20.80;71.20;;;;;;4413333;28;657589;-71
2023/05/02 13:19:11;;;;;;;9.57;4.77;;;20.50;70.30;;;;;;4438261;28;658273;-74
2023/05/02 13:21:58;;;;;;;8.60;4.60;;;20.30;71.10;;;;;;4417911;28;656572;-73
2023/05/02 13:24:46;;;;;;;11.27;5.80;;;20.40;73.50;;;;;;4422089;28;656399;-72
2023/05/02 13:27:33;;;;;;;7.57;5.37;;;20.50;73.10;;;;;;4442720;28;657867;-74
2023/05/02 13:30:21;;;;;;;8.27;4.90;;;20.20;75.50;;;;;;4425211;28;656507;-72
2023/05/02 13:33:08;;;;;;;14.27;10.07;;;19.80;70.40;;;;;;4433966;28;657866;-75
2023/05/02 13:35:57;;;;;;;11.33;6.03;;;20.30;73.30;;;;;;4419770;28;658718;-71
2023/05/02 13:38:44;;;;;;;31.67;17.37;;;20.40;71.40;;;;;;4441388;28;657820;-71
2023/05/02 13:41:31;;;;;;;9.50;5.90;;;20.40;72.10;;;;;;4418697;28;660360;-73
2023/05/02 13:44:18;;;;;;;8.33;4.63;;;19.70;71.40;;;;;;4439678;28;657410;-74
2023/05/02 13:47:05;;;;;;;12.10;7.03;;;19.80;71.80;;;;;;4424863;28;656535;-72
2023/05/02 13:49:52;;;;;;;160.40;102.80;;;20.00;72.80;;;;;;4439161;28;658202;-73
2023/05/02 13:52:42;;;;;;;31.07;18.57;;;20.00;73.20;;;;;;4426995;28;660578;-71
2023/05/02 13:55:29;;;;;;;13.33;7.57;;;20.00;74.60;;;;;;4432295;28;658994;-73
2023/05/02 13:58:16;;;;;;;7.77;5.40;;;20.10;72.70;;;;;;4418916;28;657330;-73
2023/05/02 14:01:03;;;;;;;9.07;4.70;;;20.20;72.60;;;;;;4444765;28;657432;-72
2023/05/02 14:03:50;;;;;;;10.30;5.03;;;20.40;71.10;;;;;;4422720;28;656673;-73
2023/05/02 14:06:38;;;;;;;9.63;5.37;;;20.00;73.40;;;;;;4441334;28;658802;-73
2023/05/02 14:09:27;;;;;;;7.47;4.57;;;19.90;73.10;;;;;;4422274;28;656383;-70
2023/05/02 14:12:14;;;;;;;6.73;4.20;;;19.30;74.40;;;;;;4440954;28;656538;-72
2023/05/02 14:15:01;;;;;;;6.63;4.10;;;19.50;75.10;;;;;;4391147;28;656621;-70
2023/05/02 14:17:49;;;;;;;8.70;3.70;;;19.60;76.60;;;;;;4304720;28;657415;-70
2023/05/02 14:20:36;;;;;;;10.57;4.90;;;19.50;77.20;;;;;;4292160;28;656364;-70
2023/05/02 14:23:24;;;;;;;9.23;5.60;;;19.40;76.70;;;;;;4323787;28;657135;-69
2023/05/02 14:26:12;;;;;;;6.97;3.73;;;19.50;75.70;;;;;;4408908;28;656542;-73